sensor_id;sensor_type;location;lat;lon;timestamp;pressure;altitude;pressure_sealevel;temperature;humidity
10700;BME280;5401;41.986;21.452;2024-02-14T00:00:28;98363.94;;;10.55;56.44
10700;BME280;5401;41.986;21.452;2024-02-14T00:02:55;98357.78;;;10.48;56.66
10700;BME280;5401;41.986;21.452;2024-02-14T00:05:22;98351.84;;;10.39;56.84
10700;BME280;5401;41.986;21.452;2024-02-14T00:07:50;98356.38;;;10.39;57.23
10700;BME280;5401;41.986;21.452;2024-02-14T00:10:17;98367.09;;;10.39;57.21
10700;BME280;5401;41.986;21.452;2024-02-14T00:12:45;98373.91;;;10.35;57.18
10700;BME280;5401;41.986;21.452;2024-02-14T00:15:14;98379.44;;;10.33;56.94
10700;BME280;5401;41.986;21.452;2024-02-14T00:17:43;98378.84;;;10.32;56.89
10700;BME280;5401;41.986;21.452;2024-02-14T00:20:11;98382.34;;;10.26;57.03
10700;BME280;5401;41.986;21.452;2024-02-14T00:22:38;98350.53;;;9.98;57.14
10700;BME280;5401;41.986;21.452;2024-02-14T00:25:07;98398.84;;;10.23;57.58
10700;BME280;5401;41.986;21.452;2024-02-14T00:27:35;98374.56;;;10.11;57.30
10700;BME280;5401;41.986;21.452;2024-02-14T00:30:03;98387.94;;;10.24;57.23
10700;BME280;5401;41.986;21.452;2024-02-14T00:32:30;98397.78;;;10.24;57.48
10700;BME280;5401;41.986;21.452;2024-02-14T00:35:01;98380.50;;;10.20;57.43
10700;BME280;5401;41.986;21.452;2024-02-14T00:37:28;98402.75;;;10.20;57.63
10700;BME280;5401;41.986;21.452;2024-02-14T00:39:56;98405.19;;;10.22;57.73
10700;BME280;5401;41.986;21.452;2024-02-14T00:42:24;98414.06;;;10.22;58.39
10700;BME280;5401;41.986;21.452;2024-02-14T00:44:51;98406.44;;;10.19;57.99
10700;BME280;5401;41.986;21.452;2024-02-14T00:47:18;98412.63;;;10.20;58.06
10700;BME280;5401;41.986;21.452;2024-02-14T00:49:46;98406.03;;;10.16;57.82
10700;BME280;5401;41.986;21.452;2024-02-14T00:52:15;98419.81;;;10.19;58.09
10700;BME280;5401;41.986;21.452;2024-02-14T00:54:42;98412.63;;;10.20;57.46
10700;BME280;5401;41.986;21.452;2024-02-14T00:57:10;98403.59;;;10.08;57.81
10700;BME280;5401;41.986;21.452;2024-02-14T00:59:38;98420.88;;;10.18;57.87
10700;BME280;5401;41.986;21.452;2024-02-14T01:02:05;98408.50;;;10.17;58.39
10700;BME280;5401;41.986;21.452;2024-02-14T01:04:33;98400.06;;;10.14;58.65
10700;BME280;5401;41.986;21.452;2024-02-14T01:07:02;98411.63;;;10.14;57.91
10700;BME280;5401;41.986;21.452;2024-02-14T01:09:31;98425.19;;;10.19;58.25
10700;BME280;5401;41.986;21.452;2024-02-14T01:11:59;98413.69;;;10.12;58.14
10700;BME280;5401;41.986;21.452;2024-02-14T01:14:26;98415.09;;;10.15;58.87
10700;BME280;5401;41.986;21.452;2024-02-14T01:16:54;98384.06;;;9.95;58.72
10700;BME280;5401;41.986;21.452;2024-02-14T01:19:22;98422.09;;;10.16;59.03
10700;BME280;5401;41.986;21.452;2024-02-14T01:21:51;98375.59;;;9.85;58.58
10700;BME280;5401;41.986;21.452;2024-02-14T01:24:19;98412.44;;;10.15;58.90
10700;BME280;5401;41.986;21.452;2024-02-14T01:26:49;98421.88;;;10.17;58.61
10700;BME280;5401;41.986;21.452;2024-02-14T01:29:17;98421.06;;;10.17;58.35
10700;BME280;5401;41.986;21.452;2024-02-14T01:31:45;98421.69;;;10.19;58.91
10700;BME280;5401;41.986;21.452;2024-02-14T01:34:12;98427.84;;;10.19;58.62
10700;BME280;5401;41.986;21.452;2024-02-14T01:36:40;98430.09;;;10.16;58.66
10700;BME280;5401;41.986;21.452;2024-02-14T01:39:07;98429.94;;;10.11;59.53
10700;BME280;5401;41.986;21.452;2024-02-14T01:41:37;98418.81;;;10.07;58.95
10700;BME280;5401;41.986;21.452;2024-02-14T01:44:05;98413.91;;;9.98;58.99
10700;BME280;5401;41.986;21.452;2024-02-14T01:46:33;98428.50;;;10.02;59.74
10700;BME280;5401;41.986;21.452;2024-02-14T01:49:00;98424.78;;;9.97;59.46
10700;BME280;5401;41.986;21.452;2024-02-14T01:51:29;98427.47;;;9.97;59.33
10700;BME280;5401;41.986;21.452;2024-02-14T01:53:58;98409.38;;;9.92;59.57
10700;BME280;5401;41.986;21.452;2024-02-14T01:56:26;98421.09;;;9.91;60.19
10700;BME280;5401;41.986;21.452;2024-02-14T01:58:54;98417.16;;;9.87;60.15
10700;BME280;5401;41.986;21.452;2024-02-14T02:01:23;98423.53;;;9.86;60.09
10700;BME280;5401;41.986;21.452;2024-02-14T02:03:51;98414.69;;;9.86;60.38
10700;BME280;5401;41.986;21.452;2024-02-14T02:06:18;98416.97;;;9.82;59.71
10700;BME280;5401;41.986;21.452;2024-02-14T02:08:46;98416.75;;;9.84;59.80
10700;BME280;5401;41.986;21.452;2024-02-14T02:11:14;98425.59;;;9.84;59.69
10700;BME280;5401;41.986;21.452;2024-02-14T02:13:41;98420.25;;;9.84;59.98
10700;BME280;5401;41.986;21.452;2024-02-14T02:16:09;98430.94;;;9.84;59.98
10700;BME280;5401;41.986;21.452;2024-02-14T02:18:40;98431.94;;;9.83;60.58
10700;BME280;5401;41.986;21.452;2024-02-14T02:21:07;98438.75;;;9.86;60.37
10700;BME280;5401;41.986;21.452;2024-02-14T02:23:36;98443.28;;;9.85;60.00
10700;BME280;5401;41.986;21.452;2024-02-14T02:26:03;98433.63;;;9.84;60.15
10700;BME280;5401;41.986;21.452;2024-02-14T02:28:31;98435.69;;;9.82;59.87
10700;BME280;5401;41.986;21.452;2024-02-14T02:30:58;98437.53;;;9.82;60.72
10700;BME280;5401;41.986;21.452;2024-02-14T02:33:26;98448.63;;;9.85;59.90
10700;BME280;5401;41.986;21.452;2024-02-14T02:35:53;98442.06;;;9.88;60.48
10700;BME280;5401;41.986;21.452;2024-02-14T02:38:21;98433.63;;;9.84;60.33
10700;BME280;5401;41.986;21.452;2024-02-14T02:40:50;98446.38;;;9.82;60.23
10700;BME280;5401;41.986;21.452;2024-02-14T02:43:17;98451.09;;;9.80;60.70
10700;BME280;5401;41.986;21.452;2024-02-14T02:45:45;98450.06;;;9.81;59.84
10700;BME280;5401;41.986;21.452;2024-02-14T02:48:13;98447.00;;;9.78;60.77
10700;BME280;5401;41.986;21.452;2024-02-14T02:50:40;98460.97;;;9.80;60.80
10700;BME280;5401;41.986;21.452;2024-02-14T02:53:08;98456.84;;;9.77;60.24
10700;BME280;5401;41.986;21.452;2024-02-14T02:55:35;98451.91;;;9.74;60.71
10700;BME280;5401;41.986;21.452;2024-02-14T02:58:05;98465.28;;;9.74;60.59
10700;BME280;5401;41.986;21.452;2024-02-14T03:00:33;98472.25;;;9.75;60.95
10700;BME280;5401;41.986;21.452;2024-02-14T03:03:01;98477.59;;;9.75;60.68
10700;BME280;5401;41.986;21.452;2024-02-14T03:05:30;98469.81;;;9.67;60.71
10700;BME280;5401;41.986;21.452;2024-02-14T03:07:59;98447.38;;;9.56;60.92
10700;BME280;5401;41.986;21.452;2024-02-14T03:10:27;98491.41;;;9.72;60.92
10700;BME280;5401;41.986;21.452;2024-02-14T03:12:55;98500.44;;;9.71;60.38
10700;BME280;5401;41.986;21.452;2024-02-14T03:15:24;98507.81;;;9.69;61.04
10700;BME280;5401;41.986;21.452;2024-02-14T03:17:52;98498.78;;;9.70;60.65
10700;BME280;5401;41.986;21.452;2024-02-14T03:20:20;98504.56;;;9.67;60.42
10700;BME280;5401;41.986;21.452;2024-02-14T03:22:47;98507.22;;;9.67;60.61
10700;BME280;5401;41.986;21.452;2024-02-14T03:25:16;98503.31;;;9.63;60.57
10700;BME280;5401;41.986;21.452;2024-02-14T03:27:44;98513.78;;;9.65;60.80
10700;BME280;5401;41.986;21.452;2024-02-14T03:30:17;98519.34;;;9.63;61.03
10700;BME280;5401;41.986;21.452;2024-02-14T03:32:46;98519.13;;;9.59;60.71
10700;BME280;5401;41.986;21.452;2024-02-14T03:35:13;98517.88;;;9.55;60.72
10700;BME280;5401;41.986;21.452;2024-02-14T03:37:41;98530.81;;;9.51;60.82
10700;BME280;5401;41.986;21.452;2024-02-14T03:40:10;98529.81;;;9.52;61.17
10700;BME280;5401;41.986;21.452;2024-02-14T03:42:37;98530.00;;;9.51;60.52
10700;BME280;5401;41.986;21.452;2024-02-14T03:45:06;98538.00;;;9.51;61.04
10700;BME280;5401;41.986;21.452;2024-02-14T03:47:34;98524.63;;;9.38;61.21
10700;BME280;5401;41.986;21.452;2024-02-14T03:50:07;98545.03;;;9.52;61.31
10700;BME280;5401;41.986;21.452;2024-02-14T03:52:35;98552.19;;;9.51;61.68
10700;BME280;5401;41.986;21.452;2024-02-14T03:55:03;98496.19;;;9.18;61.04
10700;BME280;5401;41.986;21.452;2024-02-14T03:57:31;98553.84;;;9.52;61.26
10700;BME280;5401;41.986;21.452;2024-02-14T04:00:01;98554.88;;;9.51;61.97
10700;BME280;5401;41.986;21.452;2024-02-14T04:02:28;98553.03;;;9.52;61.84
10700;BME280;5401;41.986;21.452;2024-02-14T04:04:57;98553.03;;;9.52;61.31
10700;BME280;5401;41.986;21.452;2024-02-14T04:07:26;98556.09;;;9.49;61.80
10700;BME280;5401;41.986;21.452;2024-02-14T04:09:53;98557.13;;;9.48;61.34
10700;BME280;5401;41.986;21.452;2024-02-14T04:12:21;98564.53;;;9.46;62.15
10700;BME280;5401;41.986;21.452;2024-02-14T04:14:48;98527.03;;;9.26;61.34
10700;BME280;5401;41.986;21.452;2024-02-14T04:17:16;98569.25;;;9.44;61.89
10700;BME280;5401;41.986;21.452;2024-02-14T04:19:43;98567.59;;;9.43;62.35
10700;BME280;5401;41.986;21.452;2024-02-14T04:22:11;98569.84;;;9.39;62.25
10700;BME280;5401;41.986;21.452;2024-02-14T04:24:39;98571.91;;;9.37;62.26
10700;BME280;5401;41.986;21.452;2024-02-14T04:27:07;98572.28;;;9.34;61.35
10700;BME280;5401;41.986;21.452;2024-02-14T04:29:34;98578.44;;;9.35;61.68
10700;BME280;5401;41.986;21.452;2024-02-14T04:32:02;98589.53;;;9.32;61.96
10700;BME280;5401;41.986;21.452;2024-02-14T04:34:30;98587.66;;;9.26;62.55
10700;BME280;5401;41.986;21.452;2024-02-14T04:36:57;98585.00;;;9.26;61.93
10700;BME280;5401;41.986;21.452;2024-02-14T04:39:25;98592.19;;;9.25;61.99
10700;BME280;5401;41.986;21.452;2024-02-14T04:41:53;98581.69;;;9.24;62.49
10700;BME280;5401;41.986;21.452;2024-02-14T04:44:22;98596.91;;;9.24;61.92
10700;BME280;5401;41.986;21.452;2024-02-14T04:46:50;98600.38;;;9.24;62.14
10700;BME280;5401;41.986;21.452;2024-02-14T04:49:18;98595.25;;;9.23;62.49
10700;BME280;5401;41.986;21.452;2024-02-14T04:51:45;98607.97;;;9.21;61.94
10700;BME280;5401;41.986;21.452;2024-02-14T04:54:13;98607.97;;;9.21;61.80
10700;BME280;5401;41.986;21.452;2024-02-14T04:56:42;98610.84;;;9.19;61.83
10700;BME280;5401;41.986;21.452;2024-02-14T04:59:12;98610.44;;;9.22;61.27
10700;BME280;5401;41.986;21.452;2024-02-14T05:01:40;98608.81;;;9.21;62.49
10700;BME280;5401;41.986;21.452;2024-02-14T05:04:07;98613.13;;;9.22;62.40
10700;BME280;5401;41.986;21.452;2024-02-14T05:06:35;98618.28;;;9.24;62.19
10700;BME280;5401;41.986;21.452;2024-02-14T05:09:05;98619.28;;;9.23;62.33
10700;BME280;5401;41.986;21.452;2024-02-14T05:11:32;98615.78;;;9.22;61.84
10700;BME280;5401;41.986;21.452;2024-02-14T05:14:00;98622.97;;;9.22;62.06
10700;BME280;5401;41.986;21.452;2024-02-14T05:16:29;98618.88;;;9.19;61.95
10700;BME280;5401;41.986;21.452;2024-02-14T05:18:57;98624.84;;;9.21;61.69
10700;BME280;5401;41.986;21.452;2024-02-14T05:21:24;98622.56;;;9.24;62.50
10700;BME280;5401;41.986;21.452;2024-02-14T05:23:53;98631.03;;;9.28;61.86
10700;BME280;5401;41.986;21.452;2024-02-14T05:26:20;98625.69;;;9.28;62.41
10700;BME280;5401;41.986;21.452;2024-02-14T05:28:48;98641.53;;;9.29;62.07
10700;BME280;5401;41.986;21.452;2024-02-14T05:31:15;98637.19;;;9.28;62.83
10700;BME280;5401;41.986;21.452;2024-02-14T05:33:44;98633.09;;;9.32;61.82
10700;BME280;5401;41.986;21.452;2024-02-14T05:36:12;98642.38;;;9.36;62.22
10700;BME280;5401;41.986;21.452;2024-02-14T05:38:39;98603.81;;;9.12;62.92
10700;BME280;5401;41.986;21.452;2024-02-14T05:41:07;98647.53;;;9.38;62.21
10700;BME280;5401;41.986;21.452;2024-02-14T05:43:34;98644.03;;;9.37;61.84
10700;BME280;5401;41.986;21.452;2024-02-14T05:46:02;98642.78;;;9.33;61.90
10700;BME280;5401;41.986;21.452;2024-02-14T05:48:29;98645.84;;;9.37;61.64
10700;BME280;5401;41.986;21.452;2024-02-14T05:50:58;98658.22;;;9.38;61.63
10700;BME280;5401;41.986;21.452;2024-02-14T05:53:26;98657.78;;;9.34;61.68
10700;BME280;5401;41.986;21.452;2024-02-14T05:55:53;98665.19;;;9.39;62.10
10700;BME280;5401;41.986;21.452;2024-02-14T05:58:21;98666.66;;;9.41;62.76
10700;BME280;5401;41.986;21.452;2024-02-14T06:00:50;98676.75;;;9.46;62.62
10700;BME280;5401;41.986;21.452;2024-02-14T06:03:17;98660.69;;;9.39;61.94
10700;BME280;5401;41.986;21.452;2024-02-14T06:05:44;98677.56;;;9.46;62.74
10700;BME280;5401;41.986;21.452;2024-02-14T06:08:13;98680.06;;;9.48;61.71
10700;BME280;5401;41.986;21.452;2024-02-14T06:10:41;98680.47;;;9.51;61.84
10700;BME280;5401;41.986;21.452;2024-02-14T06:13:08;98685.63;;;9.53;62.49
10700;BME280;5401;41.986;21.452;2024-02-14T06:15:36;98692.22;;;9.57;62.14
10700;BME280;5401;41.986;21.452;2024-02-14T06:18:04;98690.00;;;9.60;62.55
10700;BME280;5401;41.986;21.452;2024-02-14T06:20:31;98681.16;;;9.60;61.69
10700;BME280;5401;41.986;21.452;2024-02-14T06:22:58;98693.94;;;9.70;61.77
10700;BME280;5401;41.986;21.452;2024-02-14T06:25:27;98699.50;;;9.75;61.76
10700;BME280;5401;41.986;21.452;2024-02-14T06:27:55;98700.97;;;9.78;62.08
10700;BME280;5401;41.986;21.452;2024-02-14T06:30:22;98706.16;;;9.86;61.50
10700;BME280;5401;41.986;21.452;2024-02-14T06:32:50;98714.88;;;9.94;61.26
10700;BME280;5401;41.986;21.452;2024-02-14T06:35:17;98714.47;;;10.03;61.30
10700;BME280;5401;41.986;21.452;2024-02-14T06:37:46;98722.72;;;10.08;61.14
10700;BME280;5401;41.986;21.452;2024-02-14T06:40:14;98725.22;;;10.16;60.91
10700;BME280;5401;41.986;21.452;2024-02-14T06:42:43;98722.75;;;10.21;60.94
10700;BME280;5401;41.986;21.452;2024-02-14T06:45:10;98693.94;;;10.17;61.10
10700;BME280;5401;41.986;21.452;2024-02-14T06:47:38;98708.41;;;10.29;60.87
10700;BME280;5401;41.986;21.452;2024-02-14T06:50:06;98709.63;;;10.32;60.45
10700;BME280;5401;41.986;21.452;2024-02-14T06:52:34;98707.59;;;10.34;60.23
10700;BME280;5401;41.986;21.452;2024-02-14T06:55:02;98711.06;;;10.35;60.41
10700;BME280;5401;41.986;21.452;2024-02-14T06:57:29;98704.50;;;10.37;59.65
10700;BME280;5401;41.986;21.452;2024-02-14T06:59:58;98702.44;;;10.39;60.04
10700;BME280;5401;41.986;21.452;2024-02-14T07:02:26;98715.63;;;10.47;59.67
10700;BME280;5401;41.986;21.452;2024-02-14T07:04:54;98722.84;;;10.53;59.07
10700;BME280;5401;41.986;21.452;2024-02-14T07:07:21;98719.38;;;10.59;59.52
10700;BME280;5401;41.986;21.452;2024-02-14T07:09:51;98710.28;;;10.60;59.04
10700;BME280;5401;41.986;21.452;2024-02-14T07:12:19;98724.72;;;10.66;58.85
10700;BME280;5401;41.986;21.452;2024-02-14T07:14:46;98657.53;;;10.29;58.76
10700;BME280;5401;41.986;21.452;2024-02-14T07:17:15;98719.56;;;10.64;58.77
10700;BME280;5401;41.986;21.452;2024-02-14T07:19:43;98728.22;;;10.66;58.68
10700;BME280;5401;41.986;21.452;2024-02-14T07:22:15;98738.53;;;10.75;58.38
10700;BME280;5401;41.986;21.452;2024-02-14T07:24:45;98750.91;;;10.83;58.50
10700;BME280;5401;41.986;21.452;2024-02-14T07:27:14;98754.22;;;10.91;58.32
10700;BME280;5401;41.986;21.452;2024-02-14T07:29:42;98755.88;;;11.50;57.84
10700;BME280;5401;41.986;21.452;2024-02-14T07:32:10;98733.44;;;12.44;56.37
10700;BME280;5401;41.986;21.452;2024-02-14T07:34:39;98747.53;;;12.77;55.94
10700;BME280;5401;41.986;21.452;2024-02-14T07:37:07;98736.66;;;12.65;55.59
10700;BME280;5401;41.986;21.452;2024-02-14T07:39:34;98751.47;;;12.81;54.83
10700;BME280;5401;41.986;21.452;2024-02-14T07:42:02;98759.72;;;13.10;54.52
10700;BME280;5401;41.986;21.452;2024-02-14T07:44:30;98706.38;;;13.07;54.53
10700;BME280;5401;41.986;21.452;2024-02-14T07:46:58;98761.03;;;13.49;53.99
10700;BME280;5401;41.986;21.452;2024-02-14T07:49:26;98748.56;;;13.54;54.10
10700;BME280;5401;41.986;21.452;2024-02-14T07:51:54;98748.56;;;13.54;53.22
10700;BME280;5401;41.986;21.452;2024-02-14T07:54:22;98731.59;;;13.54;53.59
10700;BME280;5401;41.986;21.452;2024-02-14T07:56:49;98753.53;;;13.57;54.22
10700;BME280;5401;41.986;21.452;2024-02-14T07:59:17;98755.16;;;13.58;52.60
10700;BME280;5401;41.986;21.452;2024-02-14T08:01:44;98750.22;;;13.55;53.22
10700;BME280;5401;41.986;21.452;2024-02-14T08:04:12;98752.13;;;13.49;53.30
10700;BME280;5401;41.986;21.452;2024-02-14T08:06:39;98762.16;;;13.42;53.41
10700;BME280;5401;41.986;21.452;2024-02-14T08:09:08;98754.75;;;13.37;52.33
10700;BME280;5401;41.986;21.452;2024-02-14T08:11:35;98753.34;;;13.28;53.56
10700;BME280;5401;41.986;21.452;2024-02-14T08:14:03;98766.97;;;13.33;52.21
10700;BME280;5401;41.986;21.452;2024-02-14T08:16:31;98761.16;;;13.36;53.30
10700;BME280;5401;41.986;21.452;2024-02-14T08:18:58;98752.47;;;13.34;52.39
10700;BME280;5401;41.986;21.452;2024-02-14T08:21:26;98760.81;;;13.51;52.92
10700;BME280;5401;41.986;21.452;2024-02-14T08:23:54;98767.31;;;13.61;52.47
10700;BME280;5401;41.986;21.452;2024-02-14T08:26:23;98767.22;;;13.74;51.64
10700;BME280;5401;41.986;21.452;2024-02-14T08:28:50;98765.38;;;13.92;52.58
10700;BME280;5401;41.986;21.452;2024-02-14T08:31:18;98777.34;;;14.14;51.26
10700;BME280;5401;41.986;21.452;2024-02-14T08:33:47;98768.38;;;14.37;51.97
10700;BME280;5401;41.986;21.452;2024-02-14T08:36:14;98773.47;;;14.74;51.40
10700;BME280;5401;41.986;21.452;2024-02-14T08:38:42;98782.97;;;15.06;50.74
10700;BME280;5401;41.986;21.452;2024-02-14T08:41:10;98776.03;;;15.28;50.46
10700;BME280;5401;41.986;21.452;2024-02-14T08:43:39;98778.88;;;15.67;49.73
10700;BME280;5401;41.986;21.452;2024-02-14T08:46:09;98776.84;;;16.07;49.58
10700;BME280;5401;41.986;21.452;2024-02-14T08:48:37;98766.59;;;16.43;48.94
10700;BME280;5401;41.986;21.452;2024-02-14T08:51:07;98766.78;;;16.65;49.05
10700;BME280;5401;41.986;21.452;2024-02-14T08:53:35;98774.81;;;16.87;48.65
10700;BME280;5401;41.986;21.452;2024-02-14T08:56:03;98788.13;;;17.05;47.97
10700;BME280;5401;41.986;21.452;2024-02-14T08:58:31;98779.28;;;17.10;47.35
10700;BME280;5401;41.986;21.452;2024-02-14T09:01:00;98771.97;;;17.10;48.12
10700;BME280;5401;41.986;21.452;2024-02-14T09:03:27;98782.09;;;17.14;47.34
10700;BME280;5401;41.986;21.452;2024-02-14T09:05:57;98791.47;;;17.23;46.92
10700;BME280;5401;41.986;21.452;2024-02-14T09:08:24;98793.22;;;17.29;47.51
10700;BME280;5401;41.986;21.452;2024-02-14T09:10:51;98797.66;;;17.51;47.46
10700;BME280;5401;41.986;21.452;2024-02-14T09:13:19;98802.81;;;17.69;46.78
10700;BME280;5401;41.986;21.452;2024-02-14T09:15:46;98799.22;;;17.80;46.60
10700;BME280;5401;41.986;21.452;2024-02-14T09:18:15;98793.97;;;17.90;46.32
10700;BME280;5401;41.986;21.452;2024-02-14T09:20:45;98793.97;;;17.90;45.61
10700;BME280;5401;41.986;21.452;2024-02-14T09:23:13;98802.16;;;17.95;46.02
10700;BME280;5401;41.986;21.452;2024-02-14T09:25:45;98799.63;;;17.88;45.53
10700;BME280;5401;41.986;21.452;2024-02-14T09:28:13;98796.34;;;17.70;45.97
10700;BME280;5401;41.986;21.452;2024-02-14T09:30:41;98773.28;;;17.51;45.82
10700;BME280;5401;41.986;21.452;2024-02-14T09:33:08;98789.38;;;17.58;45.50
10700;BME280;5401;41.986;21.452;2024-02-14T09:35:37;98783.44;;;17.45;45.81
10700;BME280;5401;41.986;21.452;2024-02-14T09:38:10;98781.81;;;17.44;45.13
10700;BME280;5401;41.986;21.452;2024-02-14T09:40:39;98787.22;;;17.44;44.91
10700;BME280;5401;41.986;21.452;2024-02-14T09:43:13;98780.91;;;17.38;45.38
10700;BME280;5401;41.986;21.452;2024-02-14T09:45:45;98785.75;;;17.36;45.00
10700;BME280;5401;41.986;21.452;2024-02-14T09:48:13;98775.03;;;17.41;44.44
10700;BME280;5401;41.986;21.452;2024-02-14T09:50:44;98778.53;;;17.58;45.26
10700;BME280;5401;41.986;21.452;2024-02-14T09:53:12;98789.19;;;17.81;44.43
10700;BME280;5401;41.986;21.452;2024-02-14T09:55:41;98773.50;;;17.99;44.23
10700;BME280;5401;41.986;21.452;2024-02-14T09:58:09;98758.38;;;18.03;44.84
10700;BME280;5401;41.986;21.452;2024-02-14T10:00:37;98778.69;;;18.38;44.65
10700;BME280;5401;41.986;21.452;2024-02-14T10:03:07;98786.00;;;18.37;44.33
10700;BME280;5401;41.986;21.452;2024-02-14T10:05:35;98759.66;;;18.33;44.10
10700;BME280;5401;41.986;21.452;2024-02-14T10:08:04;98780.84;;;18.57;43.80
10700;BME280;5401;41.986;21.452;2024-02-14T10:10:32;98784.44;;;18.62;43.03
10700;BME280;5401;41.986;21.452;2024-02-14T10:13:03;98780.19;;;18.71;43.69
10700;BME280;5401;41.986;21.452;2024-02-14T10:15:31;98769.03;;;18.89;43.06
10700;BME280;5401;41.986;21.452;2024-02-14T10:17:58;98778.78;;;19.11;42.82
10700;BME280;5401;41.986;21.452;2024-02-14T10:20:26;98766.47;;;19.30;43.15
10700;BME280;5401;41.986;21.452;2024-02-14T10:23:00;98771.28;;;19.49;42.40
10700;BME280;5401;41.986;21.452;2024-02-14T10:25:30;98756.84;;;19.44;42.29
10700;BME280;5401;41.986;21.452;2024-02-14T10:28:03;98765.44;;;19.67;42.09
10700;BME280;5401;41.986;21.452;2024-02-14T10:30:31;98770.59;;;19.64;42.29
10700;BME280;5401;41.986;21.452;2024-02-14T10:32:59;98766.84;;;19.69;42.02
10700;BME280;5401;41.986;21.452;2024-02-14T10:35:28;98752.47;;;19.74;41.63
